createdAt,value
2019-05-10T00:03:02.823Z,1.81
2019-05-10T00:08:11.365Z,4.27
2019-05-10T00:13:19.873Z,4.03
2019-05-10T00:18:28.477Z,2.75
2019-05-10T00:23:37.003Z,2.12
2019-05-10T00:28:45.541Z,1.87
2019-05-10T00:33:54.073Z,2.24
2019-05-10T00:39:02.558Z,2.07
2019-05-10T00:44:11.081Z,1.59
2019-05-10T00:49:19.634Z,1.57
2019-05-10T00:54:28.142Z,1.98
2019-05-10T00:59:36.661Z,2.05
2019-05-10T01:04:45.367Z,1.98
2019-05-10T01:09:59.609Z,1.79
2019-05-10T01:14:58.098Z,1.71
2019-05-10T01:20:06.601Z,1.41
2019-05-10T01:25:15.125Z,1.36
2019-05-10T01:30:23.656Z,2.07
2019-05-10T01:35:32.216Z,1.43
2019-05-10T01:40:40.768Z,1.95
2019-05-10T01:45:49.323Z,1.43
2019-05-10T01:50:57.891Z,1.50
2019-05-10T01:56:06.473Z,1.44
2019-05-10T02:01:14.986Z,1.57
2019-05-10T02:06:23.599Z,1.50
2019-05-10T02:11:32.132Z,1.55
2019-05-10T02:16:40.803Z,1.38
2019-05-10T02:21:49.306Z,1.50
2019-05-10T02:26:57.876Z,1.60
2019-05-10T02:32:06.445Z,1.49
2019-05-10T02:42:22.162Z,1.52
2019-05-10T02:47:30.705Z,1.46
2019-05-10T02:52:39.235Z,1.88
2019-05-10T02:57:48.876Z,1.76
2019-05-10T03:02:57.324Z,1.98
2019-05-10T03:08:05.912Z,2.12
2019-05-10T03:13:14.438Z,2.01
2019-05-10T03:18:22.963Z,1.76
2019-05-10T03:23:31.449Z,1.96
2019-05-10T03:28:39.977Z,1.97
2019-05-10T03:33:55.593Z,1.93
2019-05-10T03:38:56.577Z,2.12
2019-05-10T03:44:05.097Z,1.83
2019-05-10T03:49:13.653Z,1.86
2019-05-10T03:54:22.175Z,1.83
2019-05-10T03:59:30.672Z,1.76
2019-05-10T04:04:39.196Z,2.15
2019-05-10T04:09:47.729Z,1.92
2019-05-10T04:14:56.249Z,1.97
2019-05-10T04:20:04.752Z,2.05
2019-05-10T04:25:13.273Z,2.03
2019-05-10T04:30:21.822Z,2.02
2019-05-10T04:35:30.428Z,2.03
2019-05-10T04:40:39.074Z,1.89
2019-05-10T04:45:47.613Z,1.65
2019-05-10T04:50:56.154Z,1.66
2019-05-10T04:56:04.653Z,1.84
2019-05-10T05:01:13.165Z,2.34
2019-05-10T05:06:21.745Z,2.13
2019-05-10T05:11:30.353Z,2.03
2019-05-10T05:16:38.891Z,2.00
2019-05-10T05:21:47.455Z,2.17
2019-05-10T05:26:56.009Z,2.07
2019-05-10T05:32:04.673Z,2.19
2019-05-10T05:37:13.222Z,2.61
2019-05-10T05:42:22.301Z,2.45
2019-05-10T05:47:29.834Z,2.33
2019-05-10T05:52:38.398Z,2.55
2019-05-10T05:57:46.966Z,2.83
2019-05-10T06:02:55.493Z,3.00
2019-05-10T06:08:04.180Z,2.78
2019-05-10T06:13:12.594Z,2.52
2019-05-10T06:18:21.153Z,2.40
2019-05-10T06:23:35.107Z,2.31
2019-05-10T06:28:57.416Z,1.93
2019-05-10T06:33:46.893Z,1.35
2019-05-10T06:38:54.005Z,1.31
2019-05-10T06:44:02.519Z,1.30
2019-05-10T06:49:11.127Z,1.61
2019-05-10T06:54:19.705Z,1.87
2019-05-10T06:59:28.260Z,1.53
2019-05-10T07:04:40.744Z,1.44
2019-05-10T07:10:03.805Z,1.70
2019-05-10T07:14:57.945Z,2.05
2019-05-10T07:20:01.170Z,4.88
2019-05-10T07:25:13.057Z,3.37
2019-05-10T07:30:11.597Z,1.67
2019-05-10T07:35:20.154Z,1.57
2019-05-10T07:40:28.744Z,2.02
2019-05-10T07:45:37.282Z,2.94
2019-05-10T07:50:49.248Z,2.96
2019-05-10T07:55:53.921Z,2.75
2019-05-10T08:01:02.477Z,2.66
2019-05-10T08:06:11.033Z,1.99
2019-05-10T08:11:19.612Z,1.60
2019-05-10T08:16:29.011Z,1.91
2019-05-10T08:21:38.346Z,1.68
2019-05-10T08:26:36.931Z,2.36
2019-05-10T08:31:52.149Z,2.26
2019-05-10T08:36:53.588Z,2.56
2019-05-10T08:42:13.630Z,2.13
2019-05-10T08:47:16.200Z,1.71
2019-05-10T08:52:19.407Z,2.48
2019-05-10T08:57:26.713Z,2.83
2019-05-10T09:02:35.369Z,2.88
2019-05-10T09:07:45.380Z,2.63
2019-05-10T09:12:57.874Z,2.88
2019-05-10T09:18:04.368Z,2.79
2019-05-10T09:23:08.712Z,2.77
2019-05-10T09:28:17.118Z,2.76
2019-05-10T09:33:24.591Z,2.35
2019-05-10T09:38:37.123Z,2.48
2019-05-10T09:43:48.312Z,2.43
2019-05-10T09:48:54.768Z,2.93
2019-05-10T09:54:03.739Z,3.33
2019-05-10T09:59:02.269Z,2.55
2019-05-10T10:04:10.837Z,2.68
2019-05-10T10:09:19.422Z,2.24
2019-05-10T10:14:28.370Z,1.95
2019-05-10T10:19:37.553Z,1.93
2019-05-10T10:24:49.207Z,1.98
2019-05-10T10:29:52.310Z,1.84
2019-05-10T10:35:00.870Z,1.69
2019-05-10T10:40:09.444Z,2.28
2019-05-10T10:45:17.990Z,2.30
2019-05-10T10:50:27.531Z,1.76
2019-05-10T10:55:37.182Z,1.49
2019-05-10T11:00:42.821Z,1.44
2019-05-10T11:05:51.378Z,1.15
2019-05-10T11:11:00.520Z,1.06
2019-05-10T11:16:10.869Z,1.15
2019-05-10T11:21:16.108Z,1.28
2019-05-10T11:26:26.801Z,1.50
2019-05-10T11:31:32.721Z,1.64
2019-05-10T11:36:46.143Z,1.45
2019-05-10T11:41:53.342Z,1.34
2019-05-10T11:46:57.467Z,1.32
2019-05-10T11:52:09.900Z,1.36
2019-05-10T11:57:14.206Z,1.67
2019-05-10T12:02:38.029Z,2.35
2019-05-10T12:07:35.368Z,4.70
2019-05-10T12:12:53.863Z,1.47
2019-05-10T12:17:53.069Z,1.51
2019-05-10T12:22:55.133Z,1.74
2019-05-10T12:28:03.729Z,1.90
2019-05-10T12:33:23.651Z,1.55
2019-05-10T12:38:23.568Z,1.62
2019-05-10T12:43:30.902Z,1.71
2019-05-10T12:48:36.998Z,1.93
2019-05-10T12:53:49.350Z,1.93
2019-05-10T12:58:57.640Z,1.38
2019-05-10T13:04:07.382Z,4.41
2019-05-10T13:09:10.156Z,1.57
2019-05-10T13:14:19.941Z,1.42
2019-05-10T13:19:28.586Z,1.41
2019-05-10T13:24:37.272Z,1.62
2019-05-10T13:29:46.490Z,1.38
2019-05-10T13:34:53.919Z,1.29
2019-05-10T13:40:05.611Z,2.25
2019-05-10T13:45:10.637Z,1.76
2019-05-10T13:50:19.255Z,1.41
2019-05-10T13:55:27.832Z,1.46
2019-05-10T14:00:36.409Z,1.46
2019-05-10T14:05:45.014Z,1.45
2019-05-10T14:10:55.811Z,1.54
2019-05-10T14:16:01.755Z,1.61
2019-05-10T14:21:10.257Z,1.37
2019-05-10T14:26:18.836Z,1.20
2019-05-10T14:31:27.425Z,1.44
2019-05-10T14:36:41.009Z,1.58
2019-05-10T14:41:39.606Z,1.37
2019-05-10T14:46:44.729Z,1.35
2019-05-10T14:51:58.854Z,1.28
2019-05-10T14:57:01.529Z,1.40
2019-05-10T15:02:10.162Z,1.14
2019-05-10T15:07:18.773Z,1.37
2019-05-10T15:12:28.973Z,1.27
2019-05-10T15:17:30.055Z,1.06
2019-05-10T15:22:35.640Z,1.30
2019-05-10T15:27:44.218Z,1.25
2019-05-10T15:32:52.732Z,1.35
2019-05-10T15:38:01.220Z,1.29
2019-05-10T15:43:10.629Z,1.52
2019-05-10T15:48:17.816Z,1.35
2019-05-10T15:53:27.452Z,1.15
2019-05-10T15:58:36.681Z,1.31
2019-05-10T16:03:44.945Z,1.27
2019-05-10T16:08:43.407Z,1.21
2019-05-10T16:13:54.715Z,1.07
2019-05-10T16:18:59.942Z,1.26
2019-05-10T16:24:08.453Z,1.46
2019-05-10T16:29:17.021Z,1.48
2019-05-10T16:34:26.483Z,1.52
2019-05-10T16:39:33.713Z,1.57
2019-05-10T16:44:42.309Z,1.73
2019-05-10T16:49:53.329Z,1.73
2019-05-10T16:55:03.494Z,2.00
2019-05-10T17:00:08.429Z,1.88
2019-05-10T17:05:17.122Z,1.90
2019-05-10T17:10:26.957Z,1.79
2019-05-10T17:15:34.059Z,2.01
2019-05-10T17:20:39.647Z,1.83
2019-05-10T17:25:48.242Z,2.30
2019-05-10T17:30:59.980Z,2.18
2019-05-10T17:36:14.629Z,2.36
2019-05-10T17:41:09.932Z,2.80
2019-05-10T17:46:20.671Z,2.12
2019-05-10T17:51:27.574Z,2.15
2019-05-10T17:56:38.873Z,2.17
2019-05-10T18:01:44.279Z,2.11
2019-05-10T18:06:52.845Z,1.83
2019-05-10T18:12:01.475Z,2.22
2019-05-10T18:17:10.047Z,1.89
2019-05-10T18:22:18.654Z,26.47
2019-05-10T18:27:27.169Z,40.31
2019-05-10T18:32:38.811Z,93.44
2019-05-10T18:37:37.391Z,144.09
2019-05-10T18:42:45.893Z,88.20
2019-05-10T18:47:54.457Z,102.59
2019-05-10T18:53:03.128Z,54.05
2019-05-10T18:58:11.671Z,19.09
2019-05-10T19:03:20.257Z,12.91
2019-05-10T19:08:28.816Z,13.63
2019-05-10T19:13:46.577Z,5.40
2019-05-10T19:18:45.557Z,9.66
2019-05-10T19:23:54.134Z,5.53
2019-05-10T19:29:05.313Z,5.64
2019-05-10T19:34:15.558Z,6.57
2019-05-10T19:39:18.762Z,6.84
2019-05-10T19:44:27.301Z,3.09
2019-05-10T19:49:35.830Z,3.97
2019-05-10T19:54:44.628Z,5.50
2019-05-10T19:59:53.094Z,4.62
2019-05-10T20:05:01.683Z,2.87
2019-05-10T20:10:10.235Z,3.16
2019-05-10T20:15:18.833Z,2.48
2019-05-10T20:20:27.400Z,2.68
2019-05-10T20:25:35.920Z,2.21
2019-05-10T20:30:44.552Z,2.53
2019-05-10T20:35:53.088Z,2.38
2019-05-10T20:41:01.633Z,2.28
2019-05-10T20:46:11.495Z,1.77
2019-05-10T20:51:18.294Z,1.68
2019-05-10T20:56:26.794Z,1.84
2019-05-10T21:01:35.339Z,3.11
2019-05-10T21:06:43.882Z,1.72
2019-05-10T21:11:52.440Z,1.99
2019-05-10T21:17:01.044Z,1.82
2019-05-10T21:22:09.610Z,1.71
2019-05-10T21:27:18.185Z,1.93
2019-05-10T21:32:26.761Z,1.87
2019-05-10T21:37:35.315Z,2.07
2019-05-10T21:42:43.881Z,1.96
2019-05-10T21:47:52.425Z,3.21
2019-05-10T21:53:00.997Z,4.26
2019-05-10T21:58:09.555Z,3.73
2019-05-10T22:03:18.065Z,2.49
2019-05-10T22:08:26.737Z,3.04
2019-05-10T22:13:35.332Z,2.69
2019-05-10T22:18:43.961Z,3.06
2019-05-10T22:23:52.445Z,3.05
2019-05-10T22:29:01.062Z,3.07
2019-05-10T22:34:09.609Z,2.77
2019-05-10T22:39:18.138Z,2.88
2019-05-10T22:44:26.638Z,3.41
2019-05-10T22:49:35.156Z,2.55
2019-05-10T22:54:43.700Z,2.94
2019-05-10T22:59:52.298Z,2.94
2019-05-10T23:05:00.802Z,3.20
2019-05-10T23:10:09.321Z,3.46
2019-05-10T23:15:17.886Z,3.23
2019-05-10T23:20:26.457Z,3.09
2019-05-10T23:25:34.978Z,3.14
2019-05-10T23:30:43.574Z,2.98
2019-05-10T23:35:52.085Z,2.94
2019-05-10T23:41:00.605Z,3.31
2019-05-10T23:46:09.091Z,3.45
2019-05-10T23:51:17.597Z,3.73
2019-05-10T23:56:26.156Z,3.57
